sensor_id;sensor_type;location;lat;lon;timestamp;P1;durP1;ratioP1;P2;durP2;ratioP2
15712;SDS011;7957;51.608;6.916;2023-08-12T00:01:05;5.70;;;5.20;;
15712;SDS011;7957;51.608;6.916;2023-08-12T00:03:32;6.23;;;5.70;;
15712;SDS011;7957;51.608;6.916;2023-08-12T00:05:59;5.73;;;5.23;;
15712;SDS011;7957;51.608;6.916;2023-08-12T00:08:27;5.77;;;5.27;;
15712;SDS011;7957;51.608;6.916;2023-08-12T00:10:54;5.77;;;5.17;;
15712;SDS011;7957;51.608;6.916;2023-08-12T00:13:21;5.63;;;5.00;;
15712;SDS011;7957;51.608;6.916;2023-08-12T00:15:49;5.03;;;4.63;;
15712;SDS011;7957;51.608;6.916;2023-08-12T00:18:18;5.40;;;4.90;;
15712;SDS011;7957;51.608;6.916;2023-08-12T00:20:45;5.53;;;4.60;;
15712;SDS011;7957;51.608;6.916;2023-08-12T00:23:11;6.87;;;5.23;;
15712;SDS011;7957;51.608;6.916;2023-08-12T00:25:38;5.37;;;4.70;;
15712;SDS011;7957;51.608;6.916;2023-08-12T00:28:05;5.37;;;4.87;;
15712;SDS011;7957;51.608;6.916;2023-08-12T00:30:32;4.90;;;4.50;;
15712;SDS011;7957;51.608;6.916;2023-08-12T00:33:01;5.30;;;4.80;;
15712;SDS011;7957;51.608;6.916;2023-08-12T00:35:28;5.77;;;4.63;;
15712;SDS011;7957;51.608;6.916;2023-08-12T00:37:55;4.63;;;4.23;;
15712;SDS011;7957;51.608;6.916;2023-08-12T00:40:22;5.60;;;4.53;;
15712;SDS011;7957;51.608;6.916;2023-08-12T00:42:50;4.93;;;4.40;;
15712;SDS011;7957;51.608;6.916;2023-08-12T00:45:17;4.90;;;4.50;;
15712;SDS011;7957;51.608;6.916;2023-08-12T00:47:44;4.83;;;4.40;;
15712;SDS011;7957;51.608;6.916;2023-08-12T00:50:12;4.53;;;4.20;;
15712;SDS011;7957;51.608;6.916;2023-08-12T00:52:41;4.43;;;4.03;;
15712;SDS011;7957;51.608;6.916;2023-08-12T00:55:08;3.83;;;3.53;;
15712;SDS011;7957;51.608;6.916;2023-08-12T00:57:37;4.73;;;4.30;;
15712;SDS011;7957;51.608;6.916;2023-08-12T01:00:04;4.70;;;4.20;;
15712;SDS011;7957;51.608;6.916;2023-08-12T01:02:33;4.83;;;4.23;;
15712;SDS011;7957;51.608;6.916;2023-08-12T01:05:00;4.80;;;4.30;;
15712;SDS011;7957;51.608;6.916;2023-08-12T01:07:29;4.83;;;4.30;;
15712;SDS011;7957;51.608;6.916;2023-08-12T01:09:56;4.73;;;4.27;;
15712;SDS011;7957;51.608;6.916;2023-08-12T01:12:24;5.03;;;4.27;;
15712;SDS011;7957;51.608;6.916;2023-08-12T01:14:56;4.83;;;3.90;;
15712;SDS011;7957;51.608;6.916;2023-08-12T01:17:28;4.43;;;4.03;;
15712;SDS011;7957;51.608;6.916;2023-08-12T01:19:57;4.57;;;4.13;;
15712;SDS011;7957;51.608;6.916;2023-08-12T01:22:28;4.47;;;4.07;;
15712;SDS011;7957;51.608;6.916;2023-08-12T01:25:00;4.27;;;3.93;;
15712;SDS011;7957;51.608;6.916;2023-08-12T01:27:27;4.57;;;4.10;;
15712;SDS011;7957;51.608;6.916;2023-08-12T01:29:54;4.70;;;4.30;;
15712;SDS011;7957;51.608;6.916;2023-08-12T01:32:22;3.97;;;3.57;;
15712;SDS011;7957;51.608;6.916;2023-08-12T01:34:57;5.33;;;4.03;;
15712;SDS011;7957;51.608;6.916;2023-08-12T01:37:31;3.90;;;3.60;;
15712;SDS011;7957;51.608;6.916;2023-08-12T01:40:02;4.47;;;4.07;;
15712;SDS011;7957;51.608;6.916;2023-08-12T01:42:30;4.00;;;3.67;;
15712;SDS011;7957;51.608;6.916;2023-08-12T01:45:00;4.47;;;4.07;;
15712;SDS011;7957;51.608;6.916;2023-08-12T01:47:27;4.90;;;4.30;;
15712;SDS011;7957;51.608;6.916;2023-08-12T01:49:54;4.40;;;4.00;;
15712;SDS011;7957;51.608;6.916;2023-08-12T01:52:22;5.20;;;4.70;;
15712;SDS011;7957;51.608;6.916;2023-08-12T01:54:48;4.63;;;4.23;;
15712;SDS011;7957;51.608;6.916;2023-08-12T01:57:17;5.73;;;4.70;;
15712;SDS011;7957;51.608;6.916;2023-08-12T01:59:44;4.83;;;4.30;;
15712;SDS011;7957;51.608;6.916;2023-08-12T02:02:11;5.37;;;4.87;;
15712;SDS011;7957;51.608;6.916;2023-08-12T02:04:39;5.97;;;5.10;;
15712;SDS011;7957;51.608;6.916;2023-08-12T02:07:08;5.80;;;5.27;;
15712;SDS011;7957;51.608;6.916;2023-08-12T02:09:35;6.07;;;5.47;;
15712;SDS011;7957;51.608;6.916;2023-08-12T02:12:01;6.27;;;5.67;;
15712;SDS011;7957;51.608;6.916;2023-08-12T02:14:30;5.60;;;5.10;;
15712;SDS011;7957;51.608;6.916;2023-08-12T02:16:57;5.77;;;5.27;;
15712;SDS011;7957;51.608;6.916;2023-08-12T02:19:24;6.20;;;5.60;;
15712;SDS011;7957;51.608;6.916;2023-08-12T02:21:51;6.80;;;5.57;;
15712;SDS011;7957;51.608;6.916;2023-08-12T02:24:17;5.90;;;5.40;;
15712;SDS011;7957;51.608;6.916;2023-08-12T02:26:44;6.37;;;5.77;;
15712;SDS011;7957;51.608;6.916;2023-08-12T02:29:11;5.93;;;5.33;;
15712;SDS011;7957;51.608;6.916;2023-08-12T02:31:40;6.53;;;5.93;;
15712;SDS011;7957;51.608;6.916;2023-08-12T02:34:07;6.77;;;6.10;;
15712;SDS011;7957;51.608;6.916;2023-08-12T02:36:34;7.43;;;6.63;;
15712;SDS011;7957;51.608;6.916;2023-08-12T02:39:01;7.13;;;6.37;;
15712;SDS011;7957;51.608;6.916;2023-08-12T02:41:29;6.97;;;6.27;;
15712;SDS011;7957;51.608;6.916;2023-08-12T02:43:56;7.67;;;6.50;;
15712;SDS011;7957;51.608;6.916;2023-08-12T02:46:23;7.50;;;6.77;;
15712;SDS011;7957;51.608;6.916;2023-08-12T02:48:52;7.00;;;6.30;;
15712;SDS011;7957;51.608;6.916;2023-08-12T02:51:19;8.37;;;7.13;;
15712;SDS011;7957;51.608;6.916;2023-08-12T02:53:46;7.80;;;7.00;;
15712;SDS011;7957;51.608;6.916;2023-08-12T02:56:13;7.80;;;7.00;;
15712;SDS011;7957;51.608;6.916;2023-08-12T02:58:40;8.20;;;7.23;;
15712;SDS011;7957;51.608;6.916;2023-08-12T03:01:06;7.90;;;7.10;;
15712;SDS011;7957;51.608;6.916;2023-08-12T03:03:33;8.57;;;7.77;;
15712;SDS011;7957;51.608;6.916;2023-08-12T03:06:02;8.20;;;7.40;;
15712;SDS011;7957;51.608;6.916;2023-08-12T03:08:29;8.23;;;7.53;;
15712;SDS011;7957;51.608;6.916;2023-08-12T03:10:59;8.13;;;7.37;;
15712;SDS011;7957;51.608;6.916;2023-08-12T03:13:26;8.43;;;7.43;;
15712;SDS011;7957;51.608;6.916;2023-08-12T03:15:53;8.40;;;7.50;;
15712;SDS011;7957;51.608;6.916;2023-08-12T03:18:20;8.90;;;7.83;;
15712;SDS011;7957;51.608;6.916;2023-08-12T03:20:47;8.67;;;7.87;;
15712;SDS011;7957;51.608;6.916;2023-08-12T03:23:16;8.33;;;7.53;;
15712;SDS011;7957;51.608;6.916;2023-08-12T03:25:43;8.47;;;7.53;;
15712;SDS011;7957;51.608;6.916;2023-08-12T03:28:10;8.13;;;7.33;;
15712;SDS011;7957;51.608;6.916;2023-08-12T03:30:36;8.87;;;7.97;;
15712;SDS011;7957;51.608;6.916;2023-08-12T03:33:04;8.90;;;7.33;;
15712;SDS011;7957;51.608;6.916;2023-08-12T03:35:31;8.00;;;7.20;;
15712;SDS011;7957;51.608;6.916;2023-08-12T03:37:58;8.43;;;7.57;;
15712;SDS011;7957;51.608;6.916;2023-08-12T03:40:26;7.83;;;7.13;;
15712;SDS011;7957;51.608;6.916;2023-08-12T03:42:53;8.27;;;7.43;;
15712;SDS011;7957;51.608;6.916;2023-08-12T03:45:20;7.90;;;7.10;;
15712;SDS011;7957;51.608;6.916;2023-08-12T03:47:47;8.03;;;7.23;;
15712;SDS011;7957;51.608;6.916;2023-08-12T03:50:14;7.83;;;7.10;;
15712;SDS011;7957;51.608;6.916;2023-08-12T03:52:41;7.90;;;7.00;;
15712;SDS011;7957;51.608;6.916;2023-08-12T03:55:08;8.70;;;7.73;;
15712;SDS011;7957;51.608;6.916;2023-08-12T03:57:37;7.27;;;6.53;;
15712;SDS011;7957;51.608;6.916;2023-08-12T04:00:05;7.87;;;7.07;;
15712;SDS011;7957;51.608;6.916;2023-08-12T04:02:33;7.87;;;7.10;;
15712;SDS011;7957;51.608;6.916;2023-08-12T04:05:01;7.70;;;6.90;;
15712;SDS011;7957;51.608;6.916;2023-08-12T04:07:28;8.27;;;7.47;;
15712;SDS011;7957;51.608;6.916;2023-08-12T04:09:55;8.33;;;7.40;;
15712;SDS011;7957;51.608;6.916;2023-08-12T04:12:22;8.23;;;7.43;;
15712;SDS011;7957;51.608;6.916;2023-08-12T04:14:50;8.37;;;7.50;;
15712;SDS011;7957;51.608;6.916;2023-08-12T04:17:17;8.23;;;6.90;;
15712;SDS011;7957;51.608;6.916;2023-08-12T04:19:44;7.67;;;6.83;;
15712;SDS011;7957;51.608;6.916;2023-08-12T04:22:11;8.77;;;7.20;;
15712;SDS011;7957;51.608;6.916;2023-08-12T04:24:42;7.70;;;6.97;;
15712;SDS011;7957;51.608;6.916;2023-08-12T04:27:14;8.27;;;7.23;;
15712;SDS011;7957;51.608;6.916;2023-08-12T04:29:42;7.87;;;7.00;;
15712;SDS011;7957;51.608;6.916;2023-08-12T04:32:10;7.63;;;6.87;;
15712;SDS011;7957;51.608;6.916;2023-08-12T04:34:37;7.40;;;6.57;;
15712;SDS011;7957;51.608;6.916;2023-08-12T04:37:06;7.87;;;7.07;;
15712;SDS011;7957;51.608;6.916;2023-08-12T04:39:33;7.40;;;6.77;;
15712;SDS011;7957;51.608;6.916;2023-08-12T04:42:01;8.10;;;6.80;;
15712;SDS011;7957;51.608;6.916;2023-08-12T04:44:29;7.60;;;6.90;;
15712;SDS011;7957;51.608;6.916;2023-08-12T04:46:56;7.63;;;6.97;;
15712;SDS011;7957;51.608;6.916;2023-08-12T04:49:24;7.30;;;6.63;;
15712;SDS011;7957;51.608;6.916;2023-08-12T04:51:52;8.37;;;6.63;;
15712;SDS011;7957;51.608;6.916;2023-08-12T04:54:19;7.07;;;6.47;;
15712;SDS011;7957;51.608;6.916;2023-08-12T04:56:46;7.30;;;6.60;;
15712;SDS011;7957;51.608;6.916;2023-08-12T04:59:13;7.70;;;6.87;;
15712;SDS011;7957;51.608;6.916;2023-08-12T05:01:40;7.80;;;6.80;;
15712;SDS011;7957;51.608;6.916;2023-08-12T05:04:07;7.00;;;6.17;;
15712;SDS011;7957;51.608;6.916;2023-08-12T05:06:36;8.00;;;7.30;;
15712;SDS011;7957;51.608;6.916;2023-08-12T05:09:03;7.60;;;6.80;;
15712;SDS011;7957;51.608;6.916;2023-08-12T05:11:30;6.93;;;6.23;;
15712;SDS011;7957;51.608;6.916;2023-08-12T05:13:58;7.37;;;6.67;;
15712;SDS011;7957;51.608;6.916;2023-08-12T05:16:25;6.70;;;6.10;;
15712;SDS011;7957;51.608;6.916;2023-08-12T05:18:53;6.83;;;6.23;;
15712;SDS011;7957;51.608;6.916;2023-08-12T05:21:20;6.63;;;5.87;;
15712;SDS011;7957;51.608;6.916;2023-08-12T05:23:49;7.33;;;6.20;;
15712;SDS011;7957;51.608;6.916;2023-08-12T05:26:16;6.50;;;5.90;;
15712;SDS011;7957;51.608;6.916;2023-08-12T05:28:43;7.23;;;6.50;;
15712;SDS011;7957;51.608;6.916;2023-08-12T05:31:10;6.83;;;6.23;;
15712;SDS011;7957;51.608;6.916;2023-08-12T05:36:18;7.57;;;6.87;;
15712;SDS011;7957;51.608;6.916;2023-08-12T05:38:45;6.87;;;6.27;;
15712;SDS011;7957;51.608;6.916;2023-08-12T05:41:14;7.37;;;6.63;;
15712;SDS011;7957;51.608;6.916;2023-08-12T05:43:41;6.50;;;5.90;;
15712;SDS011;7957;51.608;6.916;2023-08-12T05:46:08;6.80;;;6.10;;
15712;SDS011;7957;51.608;6.916;2023-08-12T05:48:35;7.63;;;6.50;;
15712;SDS011;7957;51.608;6.916;2023-08-12T05:51:02;7.77;;;6.93;;
15712;SDS011;7957;51.608;6.916;2023-08-12T05:53:29;7.07;;;6.40;;
15712;SDS011;7957;51.608;6.916;2023-08-12T05:55:57;7.17;;;6.47;;
15712;SDS011;7957;51.608;6.916;2023-08-12T05:58:25;7.27;;;6.57;;
15712;SDS011;7957;51.608;6.916;2023-08-12T06:00:52;7.37;;;6.67;;
15712;SDS011;7957;51.608;6.916;2023-08-12T06:03:20;6.90;;;6.20;;
15712;SDS011;7957;51.608;6.916;2023-08-12T06:05:47;6.63;;;6.03;;
15712;SDS011;7957;51.608;6.916;2023-08-12T06:08:14;7.20;;;6.60;;
15712;SDS011;7957;51.608;6.916;2023-08-12T06:10:41;7.40;;;6.70;;
15712;SDS011;7957;51.608;6.916;2023-08-12T06:13:08;6.93;;;6.33;;
15712;SDS011;7957;51.608;6.916;2023-08-12T06:15:36;7.20;;;6.50;;
15712;SDS011;7957;51.608;6.916;2023-08-12T06:18:04;7.07;;;6.47;;
15712;SDS011;7957;51.608;6.916;2023-08-12T06:20:31;7.13;;;6.53;;
15712;SDS011;7957;51.608;6.916;2023-08-12T06:22:58;7.83;;;7.03;;
15712;SDS011;7957;51.608;6.916;2023-08-12T06:25:25;6.80;;;6.23;;
15712;SDS011;7957;51.608;6.916;2023-08-12T06:27:52;7.43;;;6.60;;
15712;SDS011;7957;51.608;6.916;2023-08-12T06:30:19;7.57;;;6.87;;
15712;SDS011;7957;51.608;6.916;2023-08-12T06:32:48;7.40;;;6.70;;
15712;SDS011;7957;51.608;6.916;2023-08-12T06:35:15;8.27;;;7.00;;
15712;SDS011;7957;51.608;6.916;2023-08-12T06:37:42;7.70;;;6.90;;
15712;SDS011;7957;51.608;6.916;2023-08-12T06:40:09;7.17;;;6.33;;
15712;SDS011;7957;51.608;6.916;2023-08-12T06:42:36;7.33;;;6.67;;
15712;SDS011;7957;51.608;6.916;2023-08-12T06:45:03;8.30;;;7.53;;
15712;SDS011;7957;51.608;6.916;2023-08-12T06:47:31;7.80;;;7.00;;
15712;SDS011;7957;51.608;6.916;2023-08-12T06:49:59;8.07;;;7.27;;
15712;SDS011;7957;51.608;6.916;2023-08-12T06:52:27;7.67;;;6.93;;
15712;SDS011;7957;51.608;6.916;2023-08-12T06:54:54;7.93;;;7.23;;
15712;SDS011;7957;51.608;6.916;2023-08-12T06:57:21;8.53;;;7.30;;
15712;SDS011;7957;51.608;6.916;2023-08-12T06:59:48;7.73;;;7.03;;
15712;SDS011;7957;51.608;6.916;2023-08-12T07:02:15;7.93;;;7.17;;
15712;SDS011;7957;51.608;6.916;2023-08-12T07:04:42;7.33;;;6.50;;
15712;SDS011;7957;51.608;6.916;2023-08-12T07:07:10;7.67;;;6.87;;
15712;SDS011;7957;51.608;6.916;2023-08-12T07:09:37;6.80;;;6.10;;
15712;SDS011;7957;51.608;6.916;2023-08-12T07:12:04;6.87;;;6.03;;
15712;SDS011;7957;51.608;6.916;2023-08-12T07:14:32;7.50;;;6.23;;
15712;SDS011;7957;51.608;6.916;2023-08-12T07:16:59;6.60;;;6.00;;
15712;SDS011;7957;51.608;6.916;2023-08-12T07:19:26;6.70;;;6.00;;
15712;SDS011;7957;51.608;6.916;2023-08-12T07:21:52;6.80;;;6.00;;
15712;SDS011;7957;51.608;6.916;2023-08-12T07:24:21;6.57;;;5.97;;
15712;SDS011;7957;51.608;6.916;2023-08-12T07:26:48;8.33;;;6.80;;
15712;SDS011;7957;51.608;6.916;2023-08-12T07:29:15;7.60;;;6.73;;
15712;SDS011;7957;51.608;6.916;2023-08-12T07:31:42;7.23;;;6.30;;
15712;SDS011;7957;51.608;6.916;2023-08-12T07:34:09;6.70;;;6.03;;
15712;SDS011;7957;51.608;6.916;2023-08-12T07:36:38;7.27;;;5.90;;
15712;SDS011;7957;51.608;6.916;2023-08-12T07:39:05;6.40;;;5.80;;
15712;SDS011;7957;51.608;6.916;2023-08-12T07:41:34;6.57;;;5.80;;
15712;SDS011;7957;51.608;6.916;2023-08-12T07:44:01;6.30;;;5.70;;
15712;SDS011;7957;51.608;6.916;2023-08-12T07:46:28;6.97;;;6.27;;
15712;SDS011;7957;51.608;6.916;2023-08-12T07:48:55;6.70;;;5.93;;
15712;SDS011;7957;51.608;6.916;2023-08-12T07:51:22;6.27;;;5.67;;
15712;SDS011;7957;51.608;6.916;2023-08-12T07:53:49;5.73;;;5.20;;
15712;SDS011;7957;51.608;6.916;2023-08-12T07:56:19;5.67;;;5.13;;
15712;SDS011;7957;51.608;6.916;2023-08-12T07:58:50;6.00;;;5.40;;
15712;SDS011;7957;51.608;6.916;2023-08-12T08:01:20;5.77;;;5.27;;
15712;SDS011;7957;51.608;6.916;2023-08-12T08:03:47;6.10;;;5.50;;
15712;SDS011;7957;51.608;6.916;2023-08-12T08:06:17;5.73;;;5.23;;
15712;SDS011;7957;51.608;6.916;2023-08-12T08:08:44;6.90;;;6.03;;
15712;SDS011;7957;51.608;6.916;2023-08-12T08:11:11;5.40;;;4.90;;
15712;SDS011;7957;51.608;6.916;2023-08-12T08:13:38;5.63;;;5.13;;
15712;SDS011;7957;51.608;6.916;2023-08-12T08:16:06;5.60;;;5.10;;
15712;SDS011;7957;51.608;6.916;2023-08-12T08:18:33;5.10;;;4.70;;
15712;SDS011;7957;51.608;6.916;2023-08-12T08:21:00;5.63;;;4.73;;
15712;SDS011;7957;51.608;6.916;2023-08-12T08:23:27;5.10;;;4.60;;
15712;SDS011;7957;51.608;6.916;2023-08-12T08:25:54;5.13;;;4.73;;
15712;SDS011;7957;51.608;6.916;2023-08-12T08:28:21;5.40;;;4.90;;
15712;SDS011;7957;51.608;6.916;2023-08-12T08:30:48;6.60;;;4.50;;
15712;SDS011;7957;51.608;6.916;2023-08-12T08:33:16;5.40;;;4.90;;
15712;SDS011;7957;51.608;6.916;2023-08-12T08:35:43;5.83;;;5.33;;
15712;SDS011;7957;51.608;6.916;2023-08-12T08:38:10;6.43;;;5.83;;
15712;SDS011;7957;51.608;6.916;2023-08-12T08:40:37;5.30;;;4.90;;
15712;SDS011;7957;51.608;6.916;2023-08-12T08:43:04;6.43;;;5.47;;
15712;SDS011;7957;51.608;6.916;2023-08-12T08:45:34;6.30;;;5.70;;
15712;SDS011;7957;51.608;6.916;2023-08-12T08:48:02;6.27;;;5.67;;
15712;SDS011;7957;51.608;6.916;2023-08-12T08:50:30;6.40;;;5.30;;
15712;SDS011;7957;51.608;6.916;2023-08-12T08:52:58;6.30;;;5.70;;
15712;SDS011;7957;51.608;6.916;2023-08-12T08:55:28;6.23;;;5.63;;
15712;SDS011;7957;51.608;6.916;2023-08-12T08:57:55;7.07;;;6.17;;
15712;SDS011;7957;51.608;6.916;2023-08-12T09:00:23;5.57;;;5.10;;
15712;SDS011;7957;51.608;6.916;2023-08-12T09:02:51;4.90;;;4.40;;
15712;SDS011;7957;51.608;6.916;2023-08-12T09:05:21;5.67;;;5.17;;
15712;SDS011;7957;51.608;6.916;2023-08-12T09:07:50;5.90;;;5.30;;
15712;SDS011;7957;51.608;6.916;2023-08-12T09:10:18;5.50;;;5.00;;
15712;SDS011;7957;51.608;6.916;2023-08-12T09:12:47;5.60;;;5.10;;
15712;SDS011;7957;51.608;6.916;2023-08-12T09:15:15;7.27;;;5.43;;
15712;SDS011;7957;51.608;6.916;2023-08-12T09:17:44;6.30;;;5.70;;
15712;SDS011;7957;51.608;6.916;2023-08-12T09:20:11;6.00;;;5.40;;
15712;SDS011;7957;51.608;6.916;2023-08-12T09:22:38;5.83;;;5.30;;
15712;SDS011;7957;51.608;6.916;2023-08-12T09:25:08;6.13;;;5.53;;
15712;SDS011;7957;51.608;6.916;2023-08-12T09:27:44;5.50;;;5.00;;
15712;SDS011;7957;51.608;6.916;2023-08-12T09:30:14;6.13;;;5.00;;
15712;SDS011;7957;51.608;6.916;2023-08-12T09:32:41;5.47;;;4.97;;
15712;SDS011;7957;51.608;6.916;2023-08-12T09:35:15;5.17;;;4.67;;
15712;SDS011;7957;51.608;6.916;2023-08-12T09:37:42;5.40;;;4.90;;
15712;SDS011;7957;51.608;6.916;2023-08-12T09:40:13;6.03;;;5.23;;
15712;SDS011;7957;51.608;6.916;2023-08-12T09:42:44;7.00;;;5.40;;
15712;SDS011;7957;51.608;6.916;2023-08-12T09:45:11;6.03;;;5.23;;
15712;SDS011;7957;51.608;6.916;2023-08-12T09:47:38;6.90;;;5.10;;
15712;SDS011;7957;51.608;6.916;2023-08-12T09:50:07;5.47;;;5.07;;
15712;SDS011;7957;51.608;6.916;2023-08-12T09:52:34;6.93;;;5.40;;
15712;SDS011;7957;51.608;6.916;2023-08-12T09:55:02;5.40;;;4.70;;
15712;SDS011;7957;51.608;6.916;2023-08-12T09:57:32;5.53;;;5.03;;
15712;SDS011;7957;51.608;6.916;2023-08-12T10:00:03;7.87;;;5.37;;
15712;SDS011;7957;51.608;6.916;2023-08-12T10:02:38;7.70;;;5.60;;
15712;SDS011;7957;51.608;6.916;2023-08-12T10:05:06;5.70;;;5.10;;
15712;SDS011;7957;51.608;6.916;2023-08-12T10:07:37;5.90;;;4.93;;
15712;SDS011;7957;51.608;6.916;2023-08-12T10:10:06;5.47;;;4.97;;
15712;SDS011;7957;51.608;6.916;2023-08-12T10:12:40;5.70;;;5.13;;
15712;SDS011;7957;51.608;6.916;2023-08-12T10:15:08;7.87;;;5.27;;
15712;SDS011;7957;51.608;6.916;2023-08-12T10:17:36;6.33;;;5.30;;
15712;SDS011;7957;51.608;6.916;2023-08-12T10:20:03;7.90;;;4.90;;
15712;SDS011;7957;51.608;6.916;2023-08-12T10:22:32;4.77;;;4.23;;
15712;SDS011;7957;51.608;6.916;2023-08-12T10:25:01;5.77;;;4.87;;
15712;SDS011;7957;51.608;6.916;2023-08-12T10:27:29;4.80;;;4.40;;
15712;SDS011;7957;51.608;6.916;2023-08-12T10:29:58;7.60;;;4.70;;
15712;SDS011;7957;51.608;6.916;2023-08-12T10:32:25;4.73;;;4.33;;
15712;SDS011;7957;51.608;6.916;2023-08-12T10:34:55;4.60;;;4.20;;
15712;SDS011;7957;51.608;6.916;2023-08-12T10:37:23;4.87;;;4.47;;
15712;SDS011;7957;51.608;6.916;2023-08-12T10:39:51;4.80;;;4.40;;
15712;SDS011;7957;51.608;6.916;2023-08-12T10:45:13;4.20;;;3.80;;
15712;SDS011;7957;51.608;6.916;2023-08-12T10:47:41;4.20;;;3.70;;
15712;SDS011;7957;51.608;6.916;2023-08-12T10:53:01;4.60;;;4.20;;
15712;SDS011;7957;51.608;6.916;2023-08-12T10:55:54;4.43;;;4.03;;
15712;SDS011;7957;51.608;6.916;2023-08-12T10:58:28;5.37;;;4.87;;
15712;SDS011;7957;51.608;6.916;2023-08-12T11:01:01;6.17;;;5.27;;
15712;SDS011;7957;51.608;6.916;2023-08-12T11:03:31;4.20;;;3.90;;
15712;SDS011;7957;51.608;6.916;2023-08-12T11:06:00;4.67;;;4.27;;
15712;SDS011;7957;51.608;6.916;2023-08-12T11:08:28;4.83;;;4.33;;
15712;SDS011;7957;51.608;6.916;2023-08-12T11:10:55;4.57;;;4.17;;
15712;SDS011;7957;51.608;6.916;2023-08-12T11:13:23;4.73;;;4.33;;
15712;SDS011;7957;51.608;6.916;2023-08-12T11:16:05;5.97;;;4.53;;
15712;SDS011;7957;51.608;6.916;2023-08-12T11:18:34;4.67;;;4.27;;
15712;SDS011;7957;51.608;6.916;2023-08-12T11:21:01;4.03;;;3.73;;
15712;SDS011;7957;51.608;6.916;2023-08-12T11:23:28;4.10;;;3.70;;
15712;SDS011;7957;51.608;6.916;2023-08-12T11:25:56;4.00;;;3.70;;
15712;SDS011;7957;51.608;6.916;2023-08-12T11:28:24;3.70;;;3.40;;
15712;SDS011;7957;51.608;6.916;2023-08-12T11:30:51;4.10;;;3.70;;
15712;SDS011;7957;51.608;6.916;2023-08-12T11:33:20;3.97;;;3.67;;
15712;SDS011;7957;51.608;6.916;2023-08-12T11:35:47;4.03;;;3.60;;
15712;SDS011;7957;51.608;6.916;2023-08-12T11:38:14;4.23;;;3.80;;
15712;SDS011;7957;51.608;6.916;2023-08-12T11:40:43;3.93;;;3.50;;
15712;SDS011;7957;51.608;6.916;2023-08-12T11:43:09;4.20;;;3.80;;
15712;SDS011;7957;51.608;6.916;2023-08-12T11:45:36;3.73;;;3.43;;
15712;SDS011;7957;51.608;6.916;2023-08-12T11:48:07;3.30;;;3.00;;
15712;SDS011;7957;51.608;6.916;2023-08-12T11:50:36;3.60;;;3.27;;
15712;SDS011;7957;51.608;6.916;2023-08-12T11:53:04;3.20;;;2.90;;
15712;SDS011;7957;51.608;6.916;2023-08-12T11:55:31;3.10;;;2.80;;
15712;SDS011;7957;51.608;6.916;2023-08-12T11:57:58;2.87;;;2.67;;
15712;SDS011;7957;51.608;6.916;2023-08-12T12:00:25;3.23;;;2.70;;
15712;SDS011;7957;51.608;6.916;2023-08-12T12:02:53;2.90;;;2.70;;
15712;SDS011;7957;51.608;6.916;2023-08-12T12:05:21;4.17;;;3.07;;
15712;SDS011;7957;51.608;6.916;2023-08-12T12:07:51;3.20;;;2.90;;
15712;SDS011;7957;51.608;6.916;2023-08-12T12:10:19;3.63;;;2.97;;
15712;SDS011;7957;51.608;6.916;2023-08-12T12:12:46;3.10;;;2.90;;
15712;SDS011;7957;51.608;6.916;2023-08-12T12:15:14;3.43;;;2.97;;
15712;SDS011;7957;51.608;6.916;2023-08-12T12:17:41;4.40;;;2.90;;
15712;SDS011;7957;51.608;6.916;2023-08-12T12:20:08;4.03;;;3.73;;
15712;SDS011;7957;51.608;6.916;2023-08-12T12:22:37;4.00;;;3.70;;
15712;SDS011;7957;51.608;6.916;2023-08-12T12:25:09;3.70;;;3.40;;
15712;SDS011;7957;51.608;6.916;2023-08-12T12:27:38;3.63;;;3.33;;
15712;SDS011;7957;51.608;6.916;2023-08-12T12:30:05;2.97;;;2.77;;
15712;SDS011;7957;51.608;6.916;2023-08-12T12:32:34;3.13;;;2.93;;
15712;SDS011;7957;51.608;6.916;2023-08-12T12:35:01;3.67;;;3.47;;
15712;SDS011;7957;51.608;6.916;2023-08-12T12:37:28;3.40;;;3.10;;
15712;SDS011;7957;51.608;6.916;2023-08-12T12:39:56;3.20;;;3.00;;
15712;SDS011;7957;51.608;6.916;2023-08-12T12:42:24;3.20;;;2.90;;
15712;SDS011;7957;51.608;6.916;2023-08-12T12:44:51;3.30;;;3.00;;
15712;SDS011;7957;51.608;6.916;2023-08-12T12:47:18;4.30;;;4.00;;
15712;SDS011;7957;51.608;6.916;2023-08-12T12:49:46;4.00;;;3.70;;
15712;SDS011;7957;51.608;6.916;2023-08-12T12:52:13;4.23;;;3.93;;
15712;SDS011;7957;51.608;6.916;2023-08-12T12:54:39;4.17;;;3.50;;
15712;SDS011;7957;51.608;6.916;2023-08-12T12:57:06;4.73;;;4.33;;
15712;SDS011;7957;51.608;6.916;2023-08-12T12:59:35;4.80;;;4.50;;
15712;SDS011;7957;51.608;6.916;2023-08-12T13:02:02;4.97;;;4.57;;
15712;SDS011;7957;51.608;6.916;2023-08-12T13:04:29;4.37;;;4.07;;
15712;SDS011;7957;51.608;6.916;2023-08-12T13:06:56;4.83;;;4.43;;
15712;SDS011;7957;51.608;6.916;2023-08-12T13:09:27;5.50;;;5.10;;
15712;SDS011;7957;51.608;6.916;2023-08-12T13:11:56;4.70;;;4.40;;
15712;SDS011;7957;51.608;6.916;2023-08-12T13:14:23;5.80;;;5.33;;
15712;SDS011;7957;51.608;6.916;2023-08-12T13:16:51;5.53;;;5.03;;
15712;SDS011;7957;51.608;6.916;2023-08-12T13:19:19;5.87;;;5.47;;
15712;SDS011;7957;51.608;6.916;2023-08-12T13:21:45;6.20;;;5.70;;
15712;SDS011;7957;51.608;6.916;2023-08-12T13:24:12;4.50;;;4.10;;
15712;SDS011;7957;51.608;6.916;2023-08-12T13:26:40;3.80;;;3.50;;
15712;SDS011;7957;51.608;6.916;2023-08-12T13:29:07;4.33;;;4.03;;
15712;SDS011;7957;51.608;6.916;2023-08-12T13:31:34;3.60;;;3.40;;
15712;SDS011;7957;51.608;6.916;2023-08-12T13:34:02;4.70;;;4.30;;
15712;SDS011;7957;51.608;6.916;2023-08-12T13:36:29;5.37;;;4.97;;
15712;SDS011;7957;51.608;6.916;2023-08-12T13:38:56;4.90;;;4.53;;
15712;SDS011;7957;51.608;6.916;2023-08-12T13:41:24;6.27;;;5.77;;
15712;SDS011;7957;51.608;6.916;2023-08-12T13:43:51;5.43;;;4.93;;
15712;SDS011;7957;51.608;6.916;2023-08-12T13:46:18;4.60;;;4.30;;
15712;SDS011;7957;51.608;6.916;2023-08-12T13:48:45;3.67;;;3.37;;
15712;SDS011;7957;51.608;6.916;2023-08-12T13:51:18;4.03;;;3.73;;
15712;SDS011;7957;51.608;6.916;2023-08-12T13:53:46;3.70;;;3.40;;
15712;SDS011;7957;51.608;6.916;2023-08-12T13:56:13;3.50;;;3.20;;
15712;SDS011;7957;51.608;6.916;2023-08-12T13:58:42;3.10;;;2.90;;
15712;SDS011;7957;51.608;6.916;2023-08-12T14:01:12;2.93;;;2.73;;
15712;SDS011;7957;51.608;6.916;2023-08-12T14:03:42;2.83;;;2.63;;
15712;SDS011;7957;51.608;6.916;2023-08-12T14:09:20;3.33;;;2.50;;
15712;SDS011;7957;51.608;6.916;2023-08-12T14:11:47;3.63;;;2.30;;
15712;SDS011;7957;51.608;6.916;2023-08-12T14:14:13;2.27;;;2.17;;
15712;SDS011;7957;51.608;6.916;2023-08-12T14:16:40;3.30;;;2.20;;
15712;SDS011;7957;51.608;6.916;2023-08-12T14:19:07;2.53;;;2.33;;
15712;SDS011;7957;51.608;6.916;2023-08-12T14:21:34;2.77;;;2.50;;
15712;SDS011;7957;51.608;6.916;2023-08-12T14:24:01;2.23;;;2.00;;
15712;SDS011;7957;51.608;6.916;2023-08-12T14:26:30;3.00;;;2.80;;
15712;SDS011;7957;51.608;6.916;2023-08-12T14:28:57;3.87;;;2.87;;
15712;SDS011;7957;51.608;6.916;2023-08-12T14:31:24;4.23;;;2.70;;
15712;SDS011;7957;51.608;6.916;2023-08-12T14:33:51;3.70;;;2.63;;
15712;SDS011;7957;51.608;6.916;2023-08-12T14:36:18;2.63;;;2.43;;
15712;SDS011;7957;51.608;6.916;2023-08-12T14:38:45;3.37;;;2.70;;
15712;SDS011;7957;51.608;6.916;2023-08-12T14:41:12;2.73;;;2.50;;
15712;SDS011;7957;51.608;6.916;2023-08-12T14:43:40;2.30;;;2.13;;
15712;SDS011;7957;51.608;6.916;2023-08-12T14:46:07;2.50;;;2.30;;
15712;SDS011;7957;51.608;6.916;2023-08-12T14:48:34;3.23;;;2.10;;
15712;SDS011;7957;51.608;6.916;2023-08-12T14:51:01;3.67;;;2.00;;
15712;SDS011;7957;51.608;6.916;2023-08-12T14:53:28;4.43;;;2.10;;
15712;SDS011;7957;51.608;6.916;2023-08-12T14:55:55;3.10;;;1.97;;
15712;SDS011;7957;51.608;6.916;2023-08-12T14:58:22;5.10;;;2.20;;
15712;SDS011;7957;51.608;6.916;2023-08-12T15:00:51;2.27;;;1.70;;
15712;SDS011;7957;51.608;6.916;2023-08-12T15:03:18;2.73;;;2.00;;
15712;SDS011;7957;51.608;6.916;2023-08-12T15:05:45;4.30;;;2.10;;
15712;SDS011;7957;51.608;6.916;2023-08-12T15:08:12;2.57;;;1.83;;
15712;SDS011;7957;51.608;6.916;2023-08-12T15:10:38;3.30;;;1.93;;
15712;SDS011;7957;51.608;6.916;2023-08-12T15:13:05;3.10;;;2.17;;
15712;SDS011;7957;51.608;6.916;2023-08-12T15:15:32;3.50;;;2.40;;